Online Now
Guests 3
Members   0

24/7 FSX Server
IP: 71.135.74.145
@ KJFK until 11/15/19



Information and tools for flight simulation use only - NOT for real avaition

File Flight Plans Here

KJFK 111851Z 19005KT 10SM FEW170 OVC260 14/07 A3003 RMK AO2 SLP168 T01390072KJFK 111933Z 1120/1224 18007KT P6SM FEW050 SCT150 BKN250 FM120300 20011KT P6SM SCT040 BKN150 FM121200 24014G21KT 5SM -RA BR SCT020 OVC035 FM121400 30017G23KT 4SM -RA BR OVC015 FM121600 31018G26KT 3SM -RA BR SCT010 OVC012 TEMPO 1216/1218 2SM -RASN FM121800 32019G28KT P6SM BKN020 FM122000 32019G28KT P6SM FEW020 BKN100
Aviation Digital Data Service (ADDS)



Other FSX servers